TimeAKST,TemperatureF,Dew PointF,Humidity,Sea Level PressureIn,VisibilityMPH,Wind Direction,Wind SpeedMPH,Gust SpeedMPH,PrecipitationIn,Events,Conditions,WindDirDegrees,DateUTC
12:16 AM,39.2,37.4,93,30.38,5.0,SE,11.5,16.1,N/A,,Overcast,130,2013-01-15 09:16:00
12:36 AM,39.2,37.4,93,30.37,10.0,SE,12.7,18.4,N/A,,Overcast,140,2013-01-15 09:36:00
12:56 AM,39.2,37.4,93,30.37,10.0,SE,12.7,-,N/A,,Mostly Cloudy,140,2013-01-15 09:56:00
1:16 AM,39.2,37.4,93,30.36,10.0,SE,15.0,20.7,N/A,,Overcast,140,2013-01-15 10:16:00
1:36 AM,39.2,37.4,93,30.37,10.0,SE,15.0,21.9,N/A,,Overcast,140,2013-01-15 10:36:00
1:56 AM,39.2,37.4,93,30.37,10.0,SE,12.7,19.6,N/A,,Overcast,140,2013-01-15 10:56:00
2:16 AM,39.2,35.6,87,30.36,10.0,SE,15.0,-,N/A,,Overcast,140,2013-01-15 11:16:00
2:36 AM,39.2,35.6,87,30.36,10.0,SE,17.3,23.0,N/A,,Overcast,130,2013-01-15 11:36:00
2:56 AM,39.2,35.6,87,30.36,10.0,SE,11.5,19.6,N/A,,Overcast,140,2013-01-15 11:56:00
3:16 AM,39.2,35.6,87,30.35,10.0,SSE,13.8,18.4,N/A,,Overcast,150,2013-01-15 12:16:00
3:36 AM,39.2,35.6,87,30.34,10.0,SSE,16.1,25.3,N/A,,Overcast,150,2013-01-15 12:36:00
3:56 AM,39.2,35.6,87,30.35,10.0,SE,13.8,20.7,N/A,,Overcast,140,2013-01-15 12:56:00
4:16 AM,39.2,35.6,87,30.32,10.0,SE,16.1,23.0,N/A,,Overcast,140,2013-01-15 13:16:00
4:36 AM,39.2,35.6,87,30.32,10.0,SSE,16.1,21.9,N/A,,Overcast,150,2013-01-15 13:36:00
4:56 AM,39.2,35.6,87,30.30,10.0,SSE,15.0,-,N/A,,Overcast,150,2013-01-15 13:56:00
5:16 AM,39.2,35.6,87,30.28,10.0,SE,18.4,24.2,N/A,,Overcast,140,2013-01-15 14:16:00
5:36 AM,39.2,35.6,87,30.27,7.0,SE,15.0,23.0,N/A,,Overcast,140,2013-01-15 14:36:00
5:56 AM,39.2,35.6,87,30.28,10.0,SE,15.0,23.0,N/A,,Overcast,130,2013-01-15 14:56:00
6:16 AM,39.2,35.6,87,30.28,7.0,SE,17.3,24.2,N/A,,Overcast,140,2013-01-15 15:16:00
6:36 AM,39.2,35.6,87,30.26,7.0,SE,15.0,23.0,N/A,,Overcast,140,2013-01-15 15:36:00
6:56 AM,39.2,35.6,87,30.25,10.0,SE,16.1,24.2,N/A,,Overcast,140,2013-01-15 15:56:00
7:16 AM,39.2,35.6,87,30.25,10.0,SSE,15.0,23.0,0.02,,Overcast,150,2013-01-15 16:16:00
7:36 AM,39.2,37.4,93,30.27,10.0,SSE,8.1,-,0.05,,Overcast,150,2013-01-15 16:36:00
7:56 AM,39.2,37.4,93,30.27,8.0,South,11.5,-,0.08,,Overcast,170,2013-01-15 16:56:00
8:16 AM,39.2,37.4,93,30.28,10.0,SSE,8.1,16.1,0.04,,Overcast,150,2013-01-15 17:16:00
8:36 AM,39.2,37.4,93,30.27,10.0,SSE,10.4,-,0.07,,Overcast,150,2013-01-15 17:36:00
8:56 AM,39.2,37.4,93,30.27,10.0,SE,12.7,-,0.09,,Overcast,140,2013-01-15 17:56:00
9:16 AM,39.2,37.4,93,30.26,10.0,SE,13.8,17.3,0.02,,Overcast,140,2013-01-15 18:16:00
9:36 AM,39.2,37.4,93,30.25,10.0,SE,10.4,-,0.05,,Overcast,140,2013-01-15 18:36:00
9:56 AM,39.2,37.4,93,30.25,10.0,SE,11.5,18.4,0.07,,Overcast,140,2013-01-15 18:56:00
10:16 AM,39.2,37.4,93,30.24,10.0,SE,13.8,18.4,0.03,,Overcast,140,2013-01-15 19:16:00
10:36 AM,41.0,37.4,87,30.24,10.0,SE,15.0,18.4,0.04,,Overcast,140,2013-01-15 19:36:00
10:56 AM,39.2,37.4,93,30.24,10.0,SE,12.7,-,0.05,,Overcast,140,2013-01-15 19:56:00
11:16 AM,39.2,37.4,93,30.24,10.0,SE,12.7,-,0.01,,Overcast,140,2013-01-15 20:16:00
11:36 AM,39.2,37.4,93,30.23,10.0,SE,11.5,-,0.03,,Overcast,140,2013-01-15 20:36:00
11:56 AM,39.2,37.4,93,30.23,10.0,SE,13.8,-,0.05,,Overcast,140,2013-01-15 20:56:00
12:16 PM,39.2,37.4,93,30.22,10.0,SE,11.5,19.6,0.01,,Overcast,130,2013-01-15 21:16:00
12:36 PM,41.0,37.4,87,30.21,10.0,SE,11.5,-,0.01,,Mostly Cloudy,130,2013-01-15 21:36:00
12:56 PM,41.0,37.4,87,30.21,10.0,SE,10.4,16.1,0.01,,Overcast,130,2013-01-15 21:56:00
1:16 PM,41.0,37.4,87,30.21,10.0,SE,11.5,-,N/A,,Overcast,130,2013-01-15 22:16:00
1:36 PM,41.0,37.4,87,30.20,9.0,SE,12.7,18.4,N/A,,Overcast,130,2013-01-15 22:36:00
1:56 PM,42.8,39.2,87,30.21,9.0,SE,12.7,18.4,N/A,,Overcast,130,2013-01-15 22:56:00
2:16 PM,42.8,37.4,81,30.20,6.0,SE,15.0,-,N/A,,Overcast,130,2013-01-15 23:16:00
2:36 PM,42.8,37.4,81,30.21,4.0,SE,12.7,20.7,N/A,,Overcast,130,2013-01-15 23:36:00
2:56 PM,42.8,37.4,81,30.21,5.0,SE,13.8,20.7,N/A,,Overcast,130,2013-01-15 23:56:00
3:16 PM,42.8,39.2,87,30.20,8.0,SE,12.7,18.4,N/A,,Overcast,130,2013-01-16 00:16:00
3:36 PM,42.8,39.2,87,30.21,10.0,SE,12.7,-,N/A,,Overcast,130,2013-01-16 00:36:00
3:56 PM,42.8,39.2,87,30.21,10.0,SE,11.5,18.4,N/A,,Overcast,130,2013-01-16 00:56:00
4:16 PM,41.0,37.4,87,30.22,5.0,ESE,11.5,16.1,N/A,,Overcast,120,2013-01-16 01:16:00
4:36 PM,41.0,37.4,87,30.22,3.0,ESE,10.4,-,N/A,,Overcast,120,2013-01-16 01:36:00
4:56 PM,41.0,37.4,87,30.22,3.0,ESE,10.4,-,N/A,,Overcast,120,2013-01-16 01:56:00
5:16 PM,41.0,37.4,87,30.23,2.5,ESE,8.1,-,N/A,,Overcast,110,2013-01-16 02:16:00
5:36 PM,41.0,37.4,87,30.23,3.0,ESE,10.4,-,N/A,,Overcast,110,2013-01-16 02:36:00
5:56 PM,41.0,37.4,87,30.24,3.0,ESE,10.4,-,N/A,,Overcast,120,2013-01-16 02:56:00
6:16 PM,41.0,37.4,87,30.24,5.0,ESE,9.2,-,N/A,,Overcast,120,2013-01-16 03:16:00
6:36 PM,41.0,37.4,87,30.25,3.0,ESE,8.1,-,N/A,,Overcast,120,2013-01-16 03:36:00
6:56 PM,41.0,37.4,87,30.26,5.0,ESE,6.9,-,N/A,,Overcast,120,2013-01-16 03:56:00
7:16 PM,41.0,39.2,93,30.27,10.0,ESE,6.9,-,N/A,,Overcast,120,2013-01-16 04:16:00
7:36 PM,41.0,39.2,93,30.28,10.0,ESE,8.1,-,N/A,,Overcast,110,2013-01-16 04:36:00
7:56 PM,41.0,39.2,93,30.28,10.0,East,6.9,-,N/A,,Mostly Cloudy,100,2013-01-16 04:56:00
8:16 PM,41.0,39.2,93,30.29,10.0,ESE,5.8,-,N/A,,Overcast,110,2013-01-16 05:16:00
8:36 PM,41.0,39.2,93,30.30,10.0,East,9.2,-,N/A,,Overcast,100,2013-01-16 05:36:00
9:16 PM,41.0,37.4,87,30.31,10.0,East,6.9,-,N/A,,Mostly Cloudy,100,2013-01-16 06:16:00
9:36 PM,41.0,39.2,93,30.31,10.0,East,6.9,-,N/A,,Scattered Clouds,100,2013-01-16 06:36:00
9:56 PM,41.0,37.4,87,30.33,10.0,ESE,4.6,-,N/A,,Clear,110,2013-01-16 06:56:00
10:16 PM,41.0,39.2,93,30.33,10.0,ESE,5.8,-,N/A,,Clear,110,2013-01-16 07:16:00
10:36 PM,39.2,37.4,93,30.35,10.0,East,3.5,-,N/A,,Clear,80,2013-01-16 07:36:00
10:56 PM,39.2,37.4,93,30.35,10.0,East,5.8,-,N/A,,Mostly Cloudy,80,2013-01-16 07:56:00
11:16 PM,39.2,37.4,93,30.36,10.0,East,5.8,-,N/A,,Mostly Cloudy,90,2013-01-16 08:16:00
11:36 PM,39.2,35.6,87,30.37,10.0,East,6.9,-,N/A,,Overcast,80,2013-01-16 08:36:00
11:56 PM,37.4,35.6,93,30.38,10.0,East,6.9,-,N/A,,Scattered Clouds,80,2013-01-16 08:56:00